sensor_id;sensor_type;location;lat;lon;timestamp;P1;durP1;ratioP1;P2;durP2;ratioP2
870;SDS011;422;51.280;7.236;2022-12-07T00:00:51;50.97;;;37.17;;
870;SDS011;422;51.280;7.236;2022-12-07T00:03:18;56.00;;;38.20;;
870;SDS011;422;51.280;7.236;2022-12-07T00:05:47;51.70;;;36.27;;
870;SDS011;422;51.280;7.236;2022-12-07T00:08:14;59.00;;;37.13;;
870;SDS011;422;51.280;7.236;2022-12-07T00:10:41;51.20;;;35.00;;
870;SDS011;422;51.280;7.236;2022-12-07T00:13:08;58.07;;;41.80;;
870;SDS011;422;51.280;7.236;2022-12-07T00:15:35;48.57;;;35.00;;
870;SDS011;422;51.280;7.236;2022-12-07T00:18:02;56.80;;;37.30;;
870;SDS011;422;51.280;7.236;2022-12-07T00:20:29;52.80;;;37.03;;
870;SDS011;422;51.280;7.236;2022-12-07T00:22:59;58.33;;;36.53;;
870;SDS011;422;51.280;7.236;2022-12-07T00:25:26;56.50;;;37.70;;
870;SDS011;422;51.280;7.236;2022-12-07T00:27:54;50.80;;;37.33;;
870;SDS011;422;51.280;7.236;2022-12-07T00:30:22;54.07;;;36.90;;
870;SDS011;422;51.280;7.236;2022-12-07T00:32:49;60.23;;;39.50;;
870;SDS011;422;51.280;7.236;2022-12-07T00:35:16;59.20;;;38.37;;
870;SDS011;422;51.280;7.236;2022-12-07T00:37:43;54.13;;;36.43;;
870;SDS011;422;51.280;7.236;2022-12-07T00:40:12;54.07;;;36.60;;
870;SDS011;422;51.280;7.236;2022-12-07T00:42:39;58.87;;;38.20;;
870;SDS011;422;51.280;7.236;2022-12-07T00:45:07;59.43;;;39.03;;
870;SDS011;422;51.280;7.236;2022-12-07T00:47:35;50.83;;;35.80;;
870;SDS011;422;51.280;7.236;2022-12-07T00:50:02;54.20;;;36.13;;
870;SDS011;422;51.280;7.236;2022-12-07T00:52:29;51.73;;;37.00;;
870;SDS011;422;51.280;7.236;2022-12-07T00:54:56;56.03;;;35.70;;
870;SDS011;422;51.280;7.236;2022-12-07T00:57:25;55.60;;;35.87;;
870;SDS011;422;51.280;7.236;2022-12-07T00:59:52;54.83;;;37.50;;
870;SDS011;422;51.280;7.236;2022-12-07T01:02:22;53.43;;;37.67;;
870;SDS011;422;51.280;7.236;2022-12-07T01:04:50;61.63;;;39.37;;
870;SDS011;422;51.280;7.236;2022-12-07T01:07:17;63.87;;;38.63;;
870;SDS011;422;51.280;7.236;2022-12-07T01:09:44;60.47;;;38.83;;
870;SDS011;422;51.280;7.236;2022-12-07T01:12:11;61.80;;;39.17;;
870;SDS011;422;51.280;7.236;2022-12-07T01:14:41;57.80;;;38.43;;
870;SDS011;422;51.280;7.236;2022-12-07T01:17:08;62.10;;;41.10;;
870;SDS011;422;51.280;7.236;2022-12-07T01:19:35;55.80;;;38.17;;
870;SDS011;422;51.280;7.236;2022-12-07T01:22:02;62.13;;;38.07;;
870;SDS011;422;51.280;7.236;2022-12-07T01:24:29;50.30;;;35.47;;
870;SDS011;422;51.280;7.236;2022-12-07T01:26:56;51.33;;;35.43;;
870;SDS011;422;51.280;7.236;2022-12-07T01:29:23;51.70;;;36.03;;
870;SDS011;422;51.280;7.236;2022-12-07T01:31:52;59.90;;;38.13;;
870;SDS011;422;51.280;7.236;2022-12-07T01:34:19;57.17;;;37.70;;
870;SDS011;422;51.280;7.236;2022-12-07T01:36:46;52.43;;;36.67;;
870;SDS011;422;51.280;7.236;2022-12-07T01:39:13;54.10;;;36.50;;
870;SDS011;422;51.280;7.236;2022-12-07T01:41:40;57.40;;;36.10;;
870;SDS011;422;51.280;7.236;2022-12-07T01:44:18;54.80;;;37.77;;
870;SDS011;422;51.280;7.236;2022-12-07T01:46:47;57.60;;;38.23;;
870;SDS011;422;51.280;7.236;2022-12-07T01:49:18;53.53;;;37.80;;
870;SDS011;422;51.280;7.236;2022-12-07T01:51:51;55.70;;;37.20;;
870;SDS011;422;51.280;7.236;2022-12-07T01:54:21;57.33;;;39.43;;
870;SDS011;422;51.280;7.236;2022-12-07T01:56:50;67.57;;;39.77;;
870;SDS011;422;51.280;7.236;2022-12-07T01:59:21;55.80;;;36.83;;
870;SDS011;422;51.280;7.236;2022-12-07T02:01:51;58.10;;;37.17;;
870;SDS011;422;51.280;7.236;2022-12-07T02:04:20;54.43;;;35.77;;
870;SDS011;422;51.280;7.236;2022-12-07T02:06:48;57.37;;;37.73;;
870;SDS011;422;51.280;7.236;2022-12-07T02:09:16;59.30;;;39.63;;
870;SDS011;422;51.280;7.236;2022-12-07T02:11:44;64.17;;;40.67;;
870;SDS011;422;51.280;7.236;2022-12-07T02:14:11;62.57;;;39.07;;
870;SDS011;422;51.280;7.236;2022-12-07T02:16:41;61.67;;;39.33;;
870;SDS011;422;51.280;7.236;2022-12-07T02:19:35;62.97;;;38.17;;
870;SDS011;422;51.280;7.236;2022-12-07T02:22:33;65.10;;;39.63;;
870;SDS011;422;51.280;7.236;2022-12-07T02:25:16;57.27;;;36.33;;
870;SDS011;422;51.280;7.236;2022-12-07T02:27:52;59.63;;;38.97;;
870;SDS011;422;51.280;7.236;2022-12-07T02:30:30;64.07;;;39.63;;
870;SDS011;422;51.280;7.236;2022-12-07T02:33:00;59.80;;;38.63;;
870;SDS011;422;51.280;7.236;2022-12-07T02:35:32;58.90;;;38.17;;
870;SDS011;422;51.280;7.236;2022-12-07T02:38:07;63.67;;;38.33;;
870;SDS011;422;51.280;7.236;2022-12-07T02:40:41;54.50;;;36.93;;
870;SDS011;422;51.280;7.236;2022-12-07T02:43:16;56.27;;;36.70;;
870;SDS011;422;51.280;7.236;2022-12-07T02:45:47;59.33;;;38.00;;
870;SDS011;422;51.280;7.236;2022-12-07T02:48:17;50.10;;;33.73;;
870;SDS011;422;51.280;7.236;2022-12-07T02:50:48;53.23;;;35.27;;
870;SDS011;422;51.280;7.236;2022-12-07T02:53:28;45.97;;;33.10;;
870;SDS011;422;51.280;7.236;2022-12-07T02:55:56;46.53;;;33.00;;
870;SDS011;422;51.280;7.236;2022-12-07T02:58:28;50.17;;;33.23;;
870;SDS011;422;51.280;7.236;2022-12-07T03:01:07;44.97;;;33.47;;
870;SDS011;422;51.280;7.236;2022-12-07T03:03:41;47.07;;;32.40;;
870;SDS011;422;51.280;7.236;2022-12-07T03:06:16;47.07;;;31.77;;
870;SDS011;422;51.280;7.236;2022-12-07T03:08:51;43.80;;;32.00;;
870;SDS011;422;51.280;7.236;2022-12-07T03:11:23;42.60;;;29.03;;
870;SDS011;422;51.280;7.236;2022-12-07T03:13:58;39.87;;;30.17;;
870;SDS011;422;51.280;7.236;2022-12-07T03:16:31;46.13;;;31.50;;
870;SDS011;422;51.280;7.236;2022-12-07T03:19:03;42.97;;;30.30;;
870;SDS011;422;51.280;7.236;2022-12-07T03:21:35;43.47;;;31.77;;
870;SDS011;422;51.280;7.236;2022-12-07T03:24:06;36.53;;;29.00;;
870;SDS011;422;51.280;7.236;2022-12-07T03:26:38;48.87;;;32.80;;
870;SDS011;422;51.280;7.236;2022-12-07T03:29:11;40.77;;;29.37;;
870;SDS011;422;51.280;7.236;2022-12-07T03:31:49;39.90;;;28.27;;
870;SDS011;422;51.280;7.236;2022-12-07T03:34:24;44.10;;;29.00;;
870;SDS011;422;51.280;7.236;2022-12-07T03:37:00;38.50;;;28.20;;
870;SDS011;422;51.280;7.236;2022-12-07T03:39:30;37.87;;;27.50;;
870;SDS011;422;51.280;7.236;2022-12-07T03:42:02;42.37;;;28.50;;
870;SDS011;422;51.280;7.236;2022-12-07T03:44:32;40.37;;;28.90;;
870;SDS011;422;51.280;7.236;2022-12-07T03:47:02;40.43;;;28.70;;
870;SDS011;422;51.280;7.236;2022-12-07T03:49:34;36.20;;;27.30;;
870;SDS011;422;51.280;7.236;2022-12-07T03:52:08;39.37;;;28.37;;
870;SDS011;422;51.280;7.236;2022-12-07T03:54:45;46.23;;;31.63;;
870;SDS011;422;51.280;7.236;2022-12-07T03:57:18;41.27;;;29.73;;
870;SDS011;422;51.280;7.236;2022-12-07T03:59:47;38.70;;;27.27;;
870;SDS011;422;51.280;7.236;2022-12-07T04:02:16;45.27;;;30.63;;
870;SDS011;422;51.280;7.236;2022-12-07T04:04:44;36.40;;;27.20;;
870;SDS011;422;51.280;7.236;2022-12-07T04:07:11;39.53;;;27.00;;
870;SDS011;422;51.280;7.236;2022-12-07T04:09:39;34.80;;;26.00;;
870;SDS011;422;51.280;7.236;2022-12-07T04:12:06;34.67;;;26.10;;
870;SDS011;422;51.280;7.236;2022-12-07T04:14:33;37.43;;;27.33;;
870;SDS011;422;51.280;7.236;2022-12-07T04:17:00;41.33;;;28.60;;
870;SDS011;422;51.280;7.236;2022-12-07T04:19:29;37.73;;;27.90;;
870;SDS011;422;51.280;7.236;2022-12-07T04:21:58;40.27;;;27.03;;
870;SDS011;422;51.280;7.236;2022-12-07T04:24:27;43.20;;;28.33;;
870;SDS011;422;51.280;7.236;2022-12-07T04:26:54;37.33;;;28.20;;
870;SDS011;422;51.280;7.236;2022-12-07T04:29:22;38.10;;;25.83;;
870;SDS011;422;51.280;7.236;2022-12-07T04:31:49;36.60;;;26.50;;
870;SDS011;422;51.280;7.236;2022-12-07T04:34:17;34.77;;;25.80;;
870;SDS011;422;51.280;7.236;2022-12-07T04:36:46;32.70;;;23.87;;
870;SDS011;422;51.280;7.236;2022-12-07T04:39:17;31.43;;;23.83;;
870;SDS011;422;51.280;7.236;2022-12-07T04:41:46;35.43;;;23.50;;
870;SDS011;422;51.280;7.236;2022-12-07T04:44:13;35.83;;;24.73;;
870;SDS011;422;51.280;7.236;2022-12-07T04:46:42;37.23;;;24.13;;
870;SDS011;422;51.280;7.236;2022-12-07T04:49:10;30.37;;;22.30;;
870;SDS011;422;51.280;7.236;2022-12-07T04:51:37;28.80;;;21.93;;
870;SDS011;422;51.280;7.236;2022-12-07T04:54:06;36.67;;;23.87;;
870;SDS011;422;51.280;7.236;2022-12-07T04:56:34;29.77;;;23.20;;
870;SDS011;422;51.280;7.236;2022-12-07T04:59:02;31.83;;;25.97;;
870;SDS011;422;51.280;7.236;2022-12-07T05:01:30;30.10;;;22.93;;
870;SDS011;422;51.280;7.236;2022-12-07T05:03:57;27.67;;;21.03;;
870;SDS011;422;51.280;7.236;2022-12-07T05:06:25;28.30;;;23.30;;
870;SDS011;422;51.280;7.236;2022-12-07T05:08:52;28.83;;;22.77;;
870;SDS011;422;51.280;7.236;2022-12-07T05:11:21;30.20;;;22.83;;
870;SDS011;422;51.280;7.236;2022-12-07T05:14:02;26.57;;;21.10;;
870;SDS011;422;51.280;7.236;2022-12-07T05:16:30;29.03;;;21.27;;
870;SDS011;422;51.280;7.236;2022-12-07T05:18:57;33.50;;;22.40;;
870;SDS011;422;51.280;7.236;2022-12-07T05:21:24;26.30;;;21.17;;
870;SDS011;422;51.280;7.236;2022-12-07T05:23:51;27.00;;;21.20;;
870;SDS011;422;51.280;7.236;2022-12-07T05:26:18;30.57;;;21.10;;
870;SDS011;422;51.280;7.236;2022-12-07T05:28:49;31.43;;;21.23;;
870;SDS011;422;51.280;7.236;2022-12-07T05:31:17;31.93;;;21.50;;
870;SDS011;422;51.280;7.236;2022-12-07T05:33:44;30.03;;;22.20;;
870;SDS011;422;51.280;7.236;2022-12-07T05:36:11;26.77;;;21.07;;
870;SDS011;422;51.280;7.236;2022-12-07T05:38:39;32.90;;;22.93;;
870;SDS011;422;51.280;7.236;2022-12-07T05:41:06;31.47;;;22.57;;
870;SDS011;422;51.280;7.236;2022-12-07T05:43:56;33.57;;;23.33;;
870;SDS011;422;51.280;7.236;2022-12-07T05:46:23;34.10;;;24.23;;
870;SDS011;422;51.280;7.236;2022-12-07T05:48:50;31.40;;;23.10;;
870;SDS011;422;51.280;7.236;2022-12-07T05:51:17;30.07;;;22.17;;
870;SDS011;422;51.280;7.236;2022-12-07T05:53:44;32.17;;;23.27;;
870;SDS011;422;51.280;7.236;2022-12-07T05:56:12;31.30;;;23.20;;
870;SDS011;422;51.280;7.236;2022-12-07T05:58:39;33.90;;;25.30;;
870;SDS011;422;51.280;7.236;2022-12-07T06:01:25;35.30;;;23.83;;
870;SDS011;422;51.280;7.236;2022-12-07T06:03:52;36.23;;;24.90;;
870;SDS011;422;51.280;7.236;2022-12-07T06:06:19;36.53;;;24.53;;
870;SDS011;422;51.280;7.236;2022-12-07T06:08:46;32.33;;;22.50;;
870;SDS011;422;51.280;7.236;2022-12-07T06:11:14;32.53;;;23.80;;
870;SDS011;422;51.280;7.236;2022-12-07T06:13:59;33.43;;;24.43;;
870;SDS011;422;51.280;7.236;2022-12-07T06:16:27;38.47;;;26.00;;
870;SDS011;422;51.280;7.236;2022-12-07T06:18:54;36.57;;;25.23;;
870;SDS011;422;51.280;7.236;2022-12-07T06:21:21;39.23;;;25.57;;
870;SDS011;422;51.280;7.236;2022-12-07T06:23:50;39.50;;;26.00;;
870;SDS011;422;51.280;7.236;2022-12-07T06:26:17;36.60;;;26.43;;
870;SDS011;422;51.280;7.236;2022-12-07T06:28:45;37.83;;;27.30;;
870;SDS011;422;51.280;7.236;2022-12-07T06:31:12;42.90;;;28.73;;
870;SDS011;422;51.280;7.236;2022-12-07T06:33:41;38.20;;;27.37;;
870;SDS011;422;51.280;7.236;2022-12-07T06:36:08;40.57;;;28.17;;
870;SDS011;422;51.280;7.236;2022-12-07T06:38:36;46.83;;;29.07;;
870;SDS011;422;51.280;7.236;2022-12-07T06:41:04;44.87;;;29.97;;
870;SDS011;422;51.280;7.236;2022-12-07T06:43:31;43.77;;;29.80;;
870;SDS011;422;51.280;7.236;2022-12-07T06:45:58;46.60;;;27.33;;
870;SDS011;422;51.280;7.236;2022-12-07T06:48:25;40.07;;;27.67;;
870;SDS011;422;51.280;7.236;2022-12-07T06:50:54;40.57;;;25.93;;
870;SDS011;422;51.280;7.236;2022-12-07T06:53:21;40.60;;;27.50;;
870;SDS011;422;51.280;7.236;2022-12-07T06:55:48;35.23;;;25.63;;
870;SDS011;422;51.280;7.236;2022-12-07T06:58:15;34.80;;;26.00;;
870;SDS011;422;51.280;7.236;2022-12-07T07:00:43;41.33;;;26.90;;
870;SDS011;422;51.280;7.236;2022-12-07T07:03:10;41.50;;;26.40;;
870;SDS011;422;51.280;7.236;2022-12-07T07:05:38;32.03;;;24.93;;
870;SDS011;422;51.280;7.236;2022-12-07T07:08:06;39.77;;;23.67;;
870;SDS011;422;51.280;7.236;2022-12-07T07:10:34;38.90;;;26.00;;
870;SDS011;422;51.280;7.236;2022-12-07T07:13:02;39.87;;;26.70;;
870;SDS011;422;51.280;7.236;2022-12-07T07:15:29;36.00;;;25.50;;
870;SDS011;422;51.280;7.236;2022-12-07T07:17:56;36.73;;;25.83;;
870;SDS011;422;51.280;7.236;2022-12-07T07:20:24;34.40;;;26.27;;
870;SDS011;422;51.280;7.236;2022-12-07T07:22:53;40.17;;;28.30;;
870;SDS011;422;51.280;7.236;2022-12-07T07:25:22;38.93;;;26.37;;
870;SDS011;422;51.280;7.236;2022-12-07T07:27:49;45.37;;;28.60;;
870;SDS011;422;51.280;7.236;2022-12-07T07:30:17;43.13;;;26.40;;
870;SDS011;422;51.280;7.236;2022-12-07T07:32:44;43.30;;;27.33;;
870;SDS011;422;51.280;7.236;2022-12-07T07:35:11;39.50;;;25.20;;
870;SDS011;422;51.280;7.236;2022-12-07T07:37:39;34.67;;;24.00;;
870;SDS011;422;51.280;7.236;2022-12-07T07:40:07;35.60;;;22.63;;
870;SDS011;422;51.280;7.236;2022-12-07T07:42:36;33.73;;;22.17;;
870;SDS011;422;51.280;7.236;2022-12-07T07:45:03;38.60;;;22.00;;
870;SDS011;422;51.280;7.236;2022-12-07T07:47:31;28.40;;;21.53;;
870;SDS011;422;51.280;7.236;2022-12-07T07:50:00;35.13;;;25.07;;
870;SDS011;422;51.280;7.236;2022-12-07T07:52:28;36.10;;;22.20;;
870;SDS011;422;51.280;7.236;2022-12-07T07:54:55;31.37;;;23.40;;
870;SDS011;422;51.280;7.236;2022-12-07T07:57:22;34.33;;;22.03;;
870;SDS011;422;51.280;7.236;2022-12-07T07:59:51;34.50;;;24.77;;
870;SDS011;422;51.280;7.236;2022-12-07T08:02:18;33.80;;;25.87;;
870;SDS011;422;51.280;7.236;2022-12-07T08:04:47;37.57;;;26.57;;
870;SDS011;422;51.280;7.236;2022-12-07T08:07:14;35.90;;;24.53;;
870;SDS011;422;51.280;7.236;2022-12-07T08:09:41;36.20;;;23.83;;
870;SDS011;422;51.280;7.236;2022-12-07T08:12:08;32.40;;;22.67;;
870;SDS011;422;51.280;7.236;2022-12-07T08:14:36;32.47;;;23.80;;
870;SDS011;422;51.280;7.236;2022-12-07T08:17:04;37.13;;;23.10;;
870;SDS011;422;51.280;7.236;2022-12-07T08:19:31;36.13;;;23.63;;
870;SDS011;422;51.280;7.236;2022-12-07T08:21:59;38.03;;;25.47;;
870;SDS011;422;51.280;7.236;2022-12-07T08:24:26;38.70;;;24.80;;
870;SDS011;422;51.280;7.236;2022-12-07T08:26:54;37.03;;;25.23;;
870;SDS011;422;51.280;7.236;2022-12-07T08:29:21;37.90;;;24.83;;
870;SDS011;422;51.280;7.236;2022-12-07T08:31:48;37.03;;;25.33;;
870;SDS011;422;51.280;7.236;2022-12-07T08:34:16;38.90;;;26.47;;
870;SDS011;422;51.280;7.236;2022-12-07T08:36:44;39.73;;;26.47;;
870;SDS011;422;51.280;7.236;2022-12-07T08:39:11;40.80;;;25.80;;
870;SDS011;422;51.280;7.236;2022-12-07T08:41:38;40.43;;;24.53;;
870;SDS011;422;51.280;7.236;2022-12-07T08:44:05;34.97;;;24.67;;
870;SDS011;422;51.280;7.236;2022-12-07T08:46:33;37.63;;;25.93;;
870;SDS011;422;51.280;7.236;2022-12-07T08:49:04;36.27;;;23.63;;
870;SDS011;422;51.280;7.236;2022-12-07T08:51:36;35.33;;;22.77;;
870;SDS011;422;51.280;7.236;2022-12-07T08:54:05;33.80;;;21.97;;
870;SDS011;422;51.280;7.236;2022-12-07T08:56:35;30.80;;;21.60;;
870;SDS011;422;51.280;7.236;2022-12-07T08:59:03;36.63;;;23.20;;
870;SDS011;422;51.280;7.236;2022-12-07T09:01:30;36.53;;;24.80;;
870;SDS011;422;51.280;7.236;2022-12-07T09:03:58;42.53;;;24.80;;
870;SDS011;422;51.280;7.236;2022-12-07T09:06:25;37.40;;;24.30;;
870;SDS011;422;51.280;7.236;2022-12-07T09:08:55;39.60;;;25.97;;
870;SDS011;422;51.280;7.236;2022-12-07T09:11:25;40.43;;;25.43;;
870;SDS011;422;51.280;7.236;2022-12-07T09:13:52;35.63;;;23.93;;
870;SDS011;422;51.280;7.236;2022-12-07T09:16:19;31.30;;;22.40;;
870;SDS011;422;51.280;7.236;2022-12-07T09:18:46;41.73;;;23.23;;
870;SDS011;422;51.280;7.236;2022-12-07T09:21:13;32.97;;;23.10;;
870;SDS011;422;51.280;7.236;2022-12-07T09:23:41;36.10;;;24.00;;
870;SDS011;422;51.280;7.236;2022-12-07T09:26:09;32.00;;;23.60;;
870;SDS011;422;51.280;7.236;2022-12-07T09:28:36;35.63;;;23.80;;
870;SDS011;422;51.280;7.236;2022-12-07T09:31:05;35.53;;;23.20;;
870;SDS011;422;51.280;7.236;2022-12-07T09:33:32;32.77;;;22.20;;
870;SDS011;422;51.280;7.236;2022-12-07T09:35:59;33.90;;;22.93;;
870;SDS011;422;51.280;7.236;2022-12-07T09:38:27;37.47;;;23.10;;
870;SDS011;422;51.280;7.236;2022-12-07T09:40:56;33.80;;;23.37;;
870;SDS011;422;51.280;7.236;2022-12-07T09:43:25;34.40;;;23.17;;
870;SDS011;422;51.280;7.236;2022-12-07T09:45:53;34.83;;;24.10;;
870;SDS011;422;51.280;7.236;2022-12-07T09:48:22;32.30;;;23.63;;
870;SDS011;422;51.280;7.236;2022-12-07T09:50:53;27.47;;;21.23;;
870;SDS011;422;51.280;7.236;2022-12-07T09:53:24;35.87;;;22.63;;
870;SDS011;422;51.280;7.236;2022-12-07T09:55:54;34.00;;;22.97;;
870;SDS011;422;51.280;7.236;2022-12-07T09:58:22;29.40;;;22.73;;
870;SDS011;422;51.280;7.236;2022-12-07T10:00:52;32.97;;;24.30;;
870;SDS011;422;51.280;7.236;2022-12-07T10:03:21;31.33;;;22.60;;
870;SDS011;422;51.280;7.236;2022-12-07T10:05:49;32.27;;;23.13;;
870;SDS011;422;51.280;7.236;2022-12-07T10:08:17;34.43;;;23.37;;
870;SDS011;422;51.280;7.236;2022-12-07T10:10:46;38.20;;;26.90;;
870;SDS011;422;51.280;7.236;2022-12-07T10:13:18;31.90;;;23.07;;
870;SDS011;422;51.280;7.236;2022-12-07T10:15:50;26.67;;;21.60;;
870;SDS011;422;51.280;7.236;2022-12-07T10:18:21;27.13;;;21.50;;
870;SDS011;422;51.280;7.236;2022-12-07T10:21:04;26.97;;;20.27;;
870;SDS011;422;51.280;7.236;2022-12-07T10:23:41;28.97;;;20.00;;
870;SDS011;422;51.280;7.236;2022-12-07T10:26:29;29.10;;;21.20;;
870;SDS011;422;51.280;7.236;2022-12-07T10:28:58;26.30;;;20.57;;
870;SDS011;422;51.280;7.236;2022-12-07T10:31:29;26.47;;;18.40;;
870;SDS011;422;51.280;7.236;2022-12-07T10:33:57;22.43;;;18.23;;
870;SDS011;422;51.280;7.236;2022-12-07T10:36:26;27.00;;;18.40;;
870;SDS011;422;51.280;7.236;2022-12-07T10:39:01;22.00;;;15.90;;
870;SDS011;422;51.280;7.236;2022-12-07T10:41:30;19.13;;;15.60;;
870;SDS011;422;51.280;7.236;2022-12-07T10:43:57;22.10;;;16.97;;
870;SDS011;422;51.280;7.236;2022-12-07T10:50:02;21.20;;;17.30;;
870;SDS011;422;51.280;7.236;2022-12-07T10:53:25;23.47;;;16.10;;
870;SDS011;422;51.280;7.236;2022-12-07T10:56:13;22.00;;;16.77;;
870;SDS011;422;51.280;7.236;2022-12-07T10:59:03;26.53;;;18.97;;
870;SDS011;422;51.280;7.236;2022-12-07T11:01:48;23.90;;;19.53;;
870;SDS011;422;51.280;7.236;2022-12-07T11:04:23;28.10;;;19.40;;
870;SDS011;422;51.280;7.236;2022-12-07T11:06:59;25.63;;;19.60;;
870;SDS011;422;51.280;7.236;2022-12-07T11:09:49;25.40;;;18.73;;
870;SDS011;422;51.280;7.236;2022-12-07T11:12:26;23.97;;;17.80;;
870;SDS011;422;51.280;7.236;2022-12-07T11:15:02;32.87;;;21.63;;
870;SDS011;422;51.280;7.236;2022-12-07T11:17:41;30.27;;;21.53;;
870;SDS011;422;51.280;7.236;2022-12-07T11:20:18;25.00;;;21.37;;
870;SDS011;422;51.280;7.236;2022-12-07T11:23:03;29.13;;;21.60;;
870;SDS011;422;51.280;7.236;2022-12-07T11:25:41;35.20;;;21.80;;
870;SDS011;422;51.280;7.236;2022-12-07T11:28:18;30.07;;;22.67;;
870;SDS011;422;51.280;7.236;2022-12-07T11:31:01;31.27;;;22.43;;
870;SDS011;422;51.280;7.236;2022-12-07T11:33:39;28.70;;;23.10;;
870;SDS011;422;51.280;7.236;2022-12-07T11:36:15;32.30;;;22.10;;
870;SDS011;422;51.280;7.236;2022-12-07T11:38:59;32.03;;;24.10;;
870;SDS011;422;51.280;7.236;2022-12-07T11:41:29;34.17;;;22.90;;
870;SDS011;422;51.280;7.236;2022-12-07T11:44:01;31.80;;;24.30;;
870;SDS011;422;51.280;7.236;2022-12-07T11:46:45;27.13;;;21.00;;
870;SDS011;422;51.280;7.236;2022-12-07T11:49:19;28.33;;;22.37;;
870;SDS011;422;51.280;7.236;2022-12-07T11:51:54;25.10;;;21.40;;
870;SDS011;422;51.280;7.236;2022-12-07T11:54:29;27.97;;;20.13;;
870;SDS011;422;51.280;7.236;2022-12-07T11:57:02;23.43;;;20.40;;
870;SDS011;422;51.280;7.236;2022-12-07T11:59:36;24.13;;;19.00;;
870;SDS011;422;51.280;7.236;2022-12-07T12:02:11;25.10;;;18.70;;
870;SDS011;422;51.280;7.236;2022-12-07T12:04:45;26.27;;;20.27;;
870;SDS011;422;51.280;7.236;2022-12-07T12:07:19;22.63;;;18.73;;
870;SDS011;422;51.280;7.236;2022-12-07T12:09:51;21.90;;;18.30;;
870;SDS011;422;51.280;7.236;2022-12-07T12:15:21;20.00;;;16.33;;
870;SDS011;422;51.280;7.236;2022-12-07T12:18:08;20.57;;;15.93;;
870;SDS011;422;51.280;7.236;2022-12-07T12:20:51;18.10;;;16.10;;
870;SDS011;422;51.280;7.236;2022-12-07T12:23:22;21.37;;;16.77;;
870;SDS011;422;51.280;7.236;2022-12-07T12:25:55;20.33;;;16.17;;
870;SDS011;422;51.280;7.236;2022-12-07T12:28:24;18.57;;;15.93;;
870;SDS011;422;51.280;7.236;2022-12-07T12:31:06;18.43;;;16.63;;
870;SDS011;422;51.280;7.236;2022-12-07T12:33:37;31.70;;;18.13;;
870;SDS011;422;51.280;7.236;2022-12-07T12:36:23;25.07;;;17.57;;
870;SDS011;422;51.280;7.236;2022-12-07T12:39:07;20.40;;;16.93;;
870;SDS011;422;51.280;7.236;2022-12-07T12:41:55;23.03;;;15.77;;
870;SDS011;422;51.280;7.236;2022-12-07T12:47:52;29.33;;;25.50;;
870;SDS011;422;51.280;7.236;2022-12-07T12:50:24;27.80;;;17.17;;
870;SDS011;422;51.280;7.236;2022-12-07T12:53:03;19.67;;;17.03;;
870;SDS011;422;51.280;7.236;2022-12-07T12:56:01;20.83;;;15.23;;
870;SDS011;422;51.280;7.236;2022-12-07T12:58:50;22.80;;;14.80;;
870;SDS011;422;51.280;7.236;2022-12-07T13:01:51;17.00;;;15.00;;
870;SDS011;422;51.280;7.236;2022-12-07T13:10:20;20.63;;;16.13;;
870;SDS011;422;51.280;7.236;2022-12-07T13:13:31;23.43;;;12.47;;
870;SDS011;422;51.280;7.236;2022-12-07T13:25:41;16.33;;;11.40;;
870;SDS011;422;51.280;7.236;2022-12-07T13:28:32;14.80;;;11.83;;
870;SDS011;422;51.280;7.236;2022-12-07T13:31:08;14.93;;;11.50;;
870;SDS011;422;51.280;7.236;2022-12-07T13:33:47;16.93;;;10.63;;
870;SDS011;422;51.280;7.236;2022-12-07T13:36:17;11.50;;;9.67;;
870;SDS011;422;51.280;7.236;2022-12-07T13:38:48;12.37;;;10.13;;
870;SDS011;422;51.280;7.236;2022-12-07T13:41:21;20.20;;;12.70;;
870;SDS011;422;51.280;7.236;2022-12-07T13:43:51;15.43;;;11.50;;
870;SDS011;422;51.280;7.236;2022-12-07T13:46:24;15.47;;;10.87;;
870;SDS011;422;51.280;7.236;2022-12-07T13:48:58;15.13;;;11.67;;
870;SDS011;422;51.280;7.236;2022-12-07T13:51:26;15.13;;;11.90;;
870;SDS011;422;51.280;7.236;2022-12-07T13:53:54;15.87;;;13.93;;
870;SDS011;422;51.280;7.236;2022-12-07T13:56:26;13.00;;;8.67;;
870;SDS011;422;51.280;7.236;2022-12-07T13:58:58;16.93;;;13.20;;
870;SDS011;422;51.280;7.236;2022-12-07T14:01:25;13.17;;;8.10;;
870;SDS011;422;51.280;7.236;2022-12-07T14:03:52;11.43;;;6.57;;
870;SDS011;422;51.280;7.236;2022-12-07T14:06:23;9.57;;;7.10;;
870;SDS011;422;51.280;7.236;2022-12-07T14:09:15;8.30;;;5.90;;
870;SDS011;422;51.280;7.236;2022-12-07T14:11:45;9.80;;;5.60;;
870;SDS011;422;51.280;7.236;2022-12-07T14:14:14;6.97;;;4.70;;
870;SDS011;422;51.280;7.236;2022-12-07T14:16:54;6.43;;;4.50;;
870;SDS011;422;51.280;7.236;2022-12-07T14:19:44;6.10;;;4.57;;
870;SDS011;422;51.280;7.236;2022-12-07T14:22:25;10.47;;;5.07;;
870;SDS011;422;51.280;7.236;2022-12-07T14:25:14;6.93;;;5.20;;
870;SDS011;422;51.280;7.236;2022-12-07T14:27:48;8.33;;;4.90;;
870;SDS011;422;51.280;7.236;2022-12-07T14:30:18;8.70;;;5.50;;
870;SDS011;422;51.280;7.236;2022-12-07T14:32:46;11.17;;;5.00;;
870;SDS011;422;51.280;7.236;2022-12-07T14:35:17;13.33;;;5.97;;
870;SDS011;422;51.280;7.236;2022-12-07T14:37:47;11.03;;;5.93;;
870;SDS011;422;51.280;7.236;2022-12-07T14:40:16;8.93;;;6.27;;
870;SDS011;422;51.280;7.236;2022-12-07T14:42:45;10.10;;;5.17;;
870;SDS011;422;51.280;7.236;2022-12-07T14:45:15;7.80;;;4.83;;
870;SDS011;422;51.280;7.236;2022-12-07T14:47:43;10.43;;;4.80;;
870;SDS011;422;51.280;7.236;2022-12-07T14:50:12;8.80;;;4.90;;
870;SDS011;422;51.280;7.236;2022-12-07T14:52:40;11.50;;;5.43;;
870;SDS011;422;51.280;7.236;2022-12-07T14:55:14;7.20;;;5.20;;
870;SDS011;422;51.280;7.236;2022-12-07T14:57:46;10.63;;;6.03;;
870;SDS011;422;51.280;7.236;2022-12-07T15:00:14;9.43;;;5.00;;
870;SDS011;422;51.280;7.236;2022-12-07T15:02:43;8.87;;;5.13;;
870;SDS011;422;51.280;7.236;2022-12-07T15:05:10;8.50;;;5.77;;
870;SDS011;422;51.280;7.236;2022-12-07T15:07:38;10.30;;;6.13;;
870;SDS011;422;51.280;7.236;2022-12-07T15:10:06;9.53;;;5.70;;
870;SDS011;422;51.280;7.236;2022-12-07T15:12:40;10.73;;;6.60;;
870;SDS011;422;51.280;7.236;2022-12-07T15:15:08;18.60;;;6.60;;
870;SDS011;422;51.280;7.236;2022-12-07T15:17:35;8.07;;;6.10;;
870;SDS011;422;51.280;7.236;2022-12-07T15:20:03;8.53;;;5.30;;
870;SDS011;422;51.280;7.236;2022-12-07T15:22:30;9.23;;;5.67;;
870;SDS011;422;51.280;7.236;2022-12-07T15:24:57;8.17;;;6.50;;
870;SDS011;422;51.280;7.236;2022-12-07T15:27:25;7.17;;;5.97;;
870;SDS011;422;51.280;7.236;2022-12-07T15:29:53;8.93;;;6.20;;
870;SDS011;422;51.280;7.236;2022-12-07T15:32:20;11.30;;;6.87;;
870;SDS011;422;51.280;7.236;2022-12-07T15:34:48;7.83;;;6.10;;
870;SDS011;422;51.280;7.236;2022-12-07T15:37:16;8.80;;;6.63;;
870;SDS011;422;51.280;7.236;2022-12-07T15:39:43;12.03;;;7.00;;
870;SDS011;422;51.280;7.236;2022-12-07T15:42:10;10.23;;;6.27;;
870;SDS011;422;51.280;7.236;2022-12-07T15:44:37;10.73;;;7.20;;
870;SDS011;422;51.280;7.236;2022-12-07T15:47:23;12.83;;;7.43;;
870;SDS011;422;51.280;7.236;2022-12-07T15:49:51;12.13;;;7.17;;
870;SDS011;422;51.280;7.236;2022-12-07T15:52:19;9.53;;;7.50;;
870;SDS011;422;51.280;7.236;2022-12-07T15:54:46;12.80;;;9.03;;
870;SDS011;422;51.280;7.236;2022-12-07T15:57:13;18.40;;;9.90;;
870;SDS011;422;51.280;7.236;2022-12-07T15:59:40;11.37;;;7.87;;
870;SDS011;422;51.280;7.236;2022-12-07T16:02:08;12.63;;;7.33;;
870;SDS011;422;51.280;7.236;2022-12-07T16:04:37;15.93;;;8.73;;
870;SDS011;422;51.280;7.236;2022-12-07T16:07:07;12.17;;;8.13;;